createdAt,value
2023-02-03T00:00:51.635Z,0.95
2023-02-03T00:03:20.108Z,0.93
2023-02-03T00:05:48.887Z,1.25
2023-02-03T00:08:24.234Z,1.05
2023-02-03T00:10:52.608Z,0.85
2023-02-03T00:13:21.004Z,0.70
2023-02-03T00:15:49.367Z,0.63
2023-02-03T00:18:19.706Z,0.60
2023-02-03T00:20:47.701Z,0.80
2023-02-03T00:23:15.561Z,0.60
2023-02-03T00:25:43.496Z,0.88
2023-02-03T00:28:12.118Z,0.70
2023-02-03T00:30:40.087Z,0.70
2023-02-03T00:33:08.542Z,0.80
2023-02-03T00:35:40.627Z,0.80
2023-02-03T00:38:12.258Z,0.98
2023-02-03T00:40:42.078Z,0.75
2023-02-03T00:43:10.519Z,0.60
2023-02-03T00:45:38.784Z,1.08
2023-02-03T00:48:07.176Z,0.70
2023-02-03T00:50:35.647Z,0.70
2023-02-03T00:53:03.884Z,0.52
2023-02-03T00:55:31.758Z,0.55
2023-02-03T00:57:59.484Z,0.50
2023-02-03T01:00:28.033Z,0.50
2023-02-03T01:02:57.107Z,0.50
2023-02-03T01:05:24.846Z,0.50
2023-02-03T01:07:52.575Z,0.40
2023-02-03T01:10:20.404Z,0.60
2023-02-03T01:12:48.755Z,0.80
2023-02-03T01:15:16.659Z,0.60
2023-02-03T01:17:44.348Z,0.50
2023-02-03T01:20:13.997Z,0.60
2023-02-03T01:22:41.800Z,0.50
2023-02-03T01:25:14.933Z,0.50
2023-02-03T01:27:42.693Z,0.70
2023-02-03T01:30:11.672Z,0.40
2023-02-03T01:32:39.523Z,0.65
2023-02-03T01:35:07.702Z,0.60
2023-02-03T01:37:35.530Z,0.60
2023-02-03T01:40:03.293Z,0.52
2023-02-03T01:42:34.015Z,0.60
2023-02-03T01:45:01.699Z,0.63
2023-02-03T01:47:47.282Z,0.70
2023-02-03T01:50:34.936Z,0.80
2023-02-03T01:53:11.002Z,0.70
2023-02-03T01:55:46.099Z,0.77
2023-02-03T01:58:29.369Z,0.70
2023-02-03T02:00:59.069Z,0.65
2023-02-03T02:03:51.174Z,0.80
2023-02-03T02:06:20.388Z,1.25
2023-02-03T02:08:52.595Z,0.77
2023-02-03T02:11:21.873Z,0.85
2023-02-03T02:13:54.421Z,0.63
2023-02-03T02:17:04.496Z,0.75
2023-02-03T02:20:19.823Z,0.70
2023-02-03T02:23:37.432Z,1.00
2023-02-03T02:26:45.097Z,0.90
2023-02-03T02:29:59.240Z,0.98
2023-02-03T02:33:06.225Z,1.00
2023-02-03T02:36:27.877Z,0.93
2023-02-03T02:39:51.055Z,0.90
2023-02-03T02:42:54.876Z,0.90
2023-02-03T02:45:37.538Z,1.17
2023-02-03T02:48:33.978Z,0.93
2023-02-03T02:51:08.012Z,0.98
2023-02-03T02:53:45.633Z,0.95
2023-02-03T02:56:16.371Z,1.23
2023-02-03T02:58:49.717Z,1.40
2023-02-03T03:01:19.297Z,1.20
2023-02-03T03:03:48.244Z,1.15
2023-02-03T03:06:28.109Z,1.10
2023-02-03T03:09:05.654Z,1.02
2023-02-03T03:11:48.698Z,0.98
2023-02-03T03:14:23.537Z,1.05
2023-02-03T03:17:01.675Z,1.00
2023-02-03T03:19:39.604Z,1.45
2023-02-03T03:22:13.595Z,1.20
2023-02-03T03:24:59.086Z,1.40
2023-02-03T03:27:43.306Z,1.15
2023-02-03T03:30:23.838Z,1.15
2023-02-03T03:32:51.948Z,0.90
2023-02-03T03:35:20.054Z,0.85
2023-02-03T03:38:11.800Z,0.70
2023-02-03T03:40:51.995Z,1.00
2023-02-03T03:43:30.060Z,0.60
2023-02-03T03:46:51.891Z,1.00
2023-02-03T03:49:24.063Z,0.80
2023-02-03T03:52:06.869Z,0.80
2023-02-03T03:54:38.190Z,0.80
2023-02-03T03:57:53.022Z,1.05
2023-02-03T04:00:26.404Z,0.70
2023-02-03T04:02:58.868Z,1.00
2023-02-03T04:05:27.520Z,1.05
2023-02-03T04:07:55.417Z,0.80
2023-02-03T04:10:40.372Z,0.70
2023-02-03T04:13:10.044Z,0.70
2023-02-03T04:15:38.662Z,0.80
2023-02-03T04:18:06.828Z,0.73
2023-02-03T04:20:34.547Z,0.82
2023-02-03T04:23:01.817Z,0.52
2023-02-03T04:25:29.199Z,0.77
2023-02-03T04:27:58.389Z,0.95
2023-02-03T04:30:26.382Z,0.85
2023-02-03T04:32:54.389Z,0.68
2023-02-03T04:35:21.783Z,0.60
2023-02-03T04:37:49.024Z,0.75
2023-02-03T04:40:16.772Z,0.90
2023-02-03T04:42:44.305Z,0.80
2023-02-03T04:45:12.874Z,0.60
2023-02-03T04:47:40.435Z,0.73
2023-02-03T04:50:33.351Z,0.85
2023-02-03T04:53:01.198Z,0.70
2023-02-03T04:55:32.536Z,0.90
2023-02-03T04:58:01.396Z,0.82
2023-02-03T05:00:30.135Z,0.63
2023-02-03T05:02:57.533Z,1.77
2023-02-03T05:05:24.809Z,0.93
2023-02-03T05:07:52.046Z,0.90
2023-02-03T05:10:19.548Z,0.80
2023-02-03T05:12:47.090Z,0.80
2023-02-03T05:15:15.010Z,0.80
2023-02-03T05:17:42.776Z,1.00
2023-02-03T05:20:11.884Z,0.90
2023-02-03T05:22:39.391Z,0.80
2023-02-03T05:25:07.723Z,0.75
2023-02-03T05:27:35.297Z,1.17
2023-02-03T05:30:02.662Z,0.75
2023-02-03T05:32:29.955Z,1.00
2023-02-03T05:34:57.468Z,0.90
2023-02-03T05:37:25.027Z,1.10
2023-02-03T05:39:52.356Z,0.90
2023-02-03T05:42:19.690Z,0.95
2023-02-03T05:44:47.112Z,0.90
2023-02-03T05:47:14.718Z,1.20
2023-02-03T05:49:42.016Z,0.90
2023-02-03T05:52:09.429Z,1.00
2023-02-03T05:54:36.829Z,1.40
2023-02-03T05:57:04.111Z,1.17
2023-02-03T05:59:31.495Z,1.27
2023-02-03T06:01:58.861Z,1.10
2023-02-03T06:04:26.330Z,0.80
2023-02-03T06:06:53.575Z,1.20
2023-02-03T06:09:20.767Z,1.15
2023-02-03T06:11:48.265Z,1.10
2023-02-03T06:14:15.943Z,1.20
2023-02-03T06:16:43.730Z,1.05
2023-02-03T06:19:11.099Z,1.30
2023-02-03T06:21:38.353Z,1.40
2023-02-03T06:24:05.948Z,1.38
2023-02-03T06:26:33.744Z,1.25
2023-02-03T06:29:01.181Z,1.30
2023-02-03T06:31:28.900Z,1.08
2023-02-03T06:33:57.285Z,1.30
2023-02-03T06:36:24.556Z,1.10
2023-02-03T06:38:51.811Z,1.10
2023-02-03T06:41:19.032Z,1.08
2023-02-03T06:43:46.417Z,0.98
2023-02-03T06:46:13.691Z,1.20
2023-02-03T06:48:40.899Z,1.37
2023-02-03T06:51:08.349Z,1.10
2023-02-03T06:53:39.559Z,1.23
2023-02-03T06:56:06.999Z,1.20
2023-02-03T06:58:34.134Z,1.27
2023-02-03T07:01:01.458Z,1.67
2023-02-03T07:03:28.843Z,1.30
2023-02-03T07:05:56.153Z,1.10
2023-02-03T07:08:23.454Z,1.08
2023-02-03T07:10:55.987Z,0.90
2023-02-03T07:13:23.372Z,1.20
2023-02-03T07:15:51.375Z,1.10
2023-02-03T07:18:45.222Z,1.08
2023-02-03T07:21:09.070Z,1.33
2023-02-03T07:23:36.344Z,1.25
2023-02-03T07:26:07.379Z,1.10
2023-02-03T07:28:36.340Z,1.35
2023-02-03T07:31:04.946Z,1.45
2023-02-03T07:33:32.540Z,1.20
2023-02-03T07:36:00.605Z,1.77
2023-02-03T07:38:28.814Z,1.10
2023-02-03T07:40:56.845Z,1.67
2023-02-03T07:43:25.154Z,1.05
2023-02-03T07:45:52.472Z,1.20
2023-02-03T07:48:20.783Z,1.35
2023-02-03T07:50:49.233Z,1.40
2023-02-03T07:53:17.624Z,1.50
2023-02-03T07:55:44.900Z,1.45
2023-02-03T07:58:12.191Z,1.45
2023-02-03T08:00:39.480Z,1.50
2023-02-03T08:03:07.049Z,1.70
2023-02-03T08:05:34.557Z,1.40
2023-02-03T08:08:01.797Z,1.63
2023-02-03T08:10:29.524Z,1.70
2023-02-03T08:12:57.086Z,1.55
2023-02-03T08:15:24.768Z,1.90
2023-02-03T08:17:53.224Z,1.55
2023-02-03T08:20:21.120Z,1.75
2023-02-03T08:22:48.460Z,1.60
2023-02-03T08:25:15.823Z,1.77
2023-02-03T08:27:43.264Z,1.63
2023-02-03T08:30:14.255Z,1.77
2023-02-03T08:32:41.512Z,1.70
2023-02-03T08:35:09.606Z,1.60
2023-02-03T08:37:37.263Z,1.60
2023-02-03T08:40:06.124Z,1.70
2023-02-03T08:42:33.526Z,1.70
2023-02-03T08:45:02.768Z,1.70
2023-02-03T08:47:31.689Z,1.70
2023-02-03T08:49:58.969Z,1.85
2023-02-03T08:52:26.416Z,1.70
2023-02-03T08:54:53.879Z,1.60
2023-02-03T08:57:21.133Z,1.90
2023-02-03T08:59:48.916Z,1.92
2023-02-03T09:02:19.813Z,1.60
2023-02-03T09:04:49.185Z,1.60
2023-02-03T09:07:16.864Z,1.60
2023-02-03T09:09:44.367Z,1.60
2023-02-03T09:12:13.187Z,1.60
2023-02-03T09:14:40.947Z,1.42
2023-02-03T09:17:10.357Z,1.40
2023-02-03T09:19:38.287Z,1.27
2023-02-03T09:22:06.123Z,1.45
2023-02-03T09:24:33.971Z,2.00
2023-02-03T09:27:01.591Z,1.30
2023-02-03T09:29:29.141Z,1.27
2023-02-03T09:31:56.768Z,1.35
2023-02-03T09:34:24.285Z,1.27
2023-02-03T09:36:51.645Z,1.20
2023-02-03T09:39:19.069Z,1.65
2023-02-03T09:42:37.309Z,1.30
2023-02-03T09:45:29.978Z,1.00
2023-02-03T09:48:20.198Z,1.10
2023-02-03T09:50:50.824Z,1.20
2023-02-03T09:53:36.218Z,1.10
2023-02-03T09:56:04.134Z,1.40
2023-02-03T09:58:34.883Z,1.20
2023-02-03T10:01:11.482Z,1.05
2023-02-03T10:03:57.160Z,1.10
2023-02-03T10:06:28.131Z,1.10
2023-02-03T10:09:46.742Z,1.00
2023-02-03T10:12:47.794Z,0.95
2023-02-03T10:15:45.383Z,1.15
2023-02-03T10:18:28.140Z,1.30
2023-02-03T10:21:03.806Z,1.30
2023-02-03T10:23:38.161Z,1.17
2023-02-03T10:26:20.878Z,1.10
2023-02-03T10:29:04.973Z,1.65
2023-02-03T10:31:37.727Z,1.75
2023-02-03T10:34:15.660Z,0.95
2023-02-03T10:37:03.829Z,1.20
2023-02-03T10:39:44.996Z,1.10
2023-02-03T10:42:14.127Z,1.45
2023-02-03T10:44:54.301Z,1.00
2023-02-03T10:47:34.757Z,1.00
2023-02-03T10:50:20.879Z,1.25
2023-02-03T10:52:48.415Z,1.10
2023-02-03T10:55:24.588Z,0.88
2023-02-03T10:57:57.246Z,1.10
2023-02-03T11:00:34.532Z,0.90
2023-02-03T11:03:34.686Z,0.80
2023-02-03T11:06:10.126Z,0.75
2023-02-03T11:08:45.457Z,1.23
2023-02-03T11:11:34.168Z,1.30
2023-02-03T11:14:04.722Z,1.00
2023-02-03T11:16:38.503Z,1.00
2023-02-03T11:19:22.347Z,0.82
2023-02-03T11:21:54.405Z,0.80
2023-02-03T11:24:32.536Z,1.02
2023-02-03T11:27:22.749Z,1.08
2023-02-03T11:30:27.592Z,1.30
2023-02-03T11:32:56.255Z,0.80
2023-02-03T11:35:27.661Z,0.82
2023-02-03T11:38:01.910Z,0.90
2023-02-03T11:40:34.254Z,0.90
2023-02-03T11:43:14.623Z,0.80
2023-02-03T11:45:54.650Z,0.80
2023-02-03T11:48:36.740Z,0.70
2023-02-03T11:51:36.186Z,0.88
2023-02-03T11:54:44.432Z,3.15
2023-02-03T11:58:02.991Z,0.93
2023-02-03T12:00:59.922Z,0.73
2023-02-03T12:04:11.882Z,0.85
2023-02-03T12:07:30.532Z,0.98
2023-02-03T12:10:37.467Z,0.85
2023-02-03T12:14:07.004Z,1.00
2023-02-03T12:17:23.957Z,0.80
2023-02-03T12:20:54.378Z,0.90
2023-02-03T12:24:27.909Z,1.00
2023-02-03T12:27:39.377Z,1.30
2023-02-03T12:30:36.115Z,0.82
2023-02-03T12:33:27.923Z,1.00
2023-02-03T12:36:27.853Z,0.80
2023-02-03T12:39:12.195Z,0.80
2023-02-03T12:41:51.760Z,0.90
2023-02-03T12:44:49.734Z,0.60
2023-02-03T12:47:31.898Z,0.60
2023-02-03T12:50:30.207Z,0.60
2023-02-03T12:53:15.064Z,0.50
2023-02-03T12:56:02.937Z,0.60
2023-02-03T12:58:40.521Z,0.70
2023-02-03T13:01:40.554Z,0.88
2023-02-03T13:04:38.550Z,0.80
2023-02-03T13:07:39.732Z,0.90
2023-02-03T13:10:52.932Z,0.70
2023-02-03T13:14:11.011Z,0.55
2023-02-03T13:16:45.642Z,0.50
2023-02-03T13:19:25.685Z,0.60
2023-02-03T13:21:56.946Z,0.60
2023-02-03T13:24:28.096Z,0.52
2023-02-03T13:27:30.339Z,0.90
2023-02-03T13:30:39.127Z,0.88
2023-02-03T13:33:48.679Z,0.80
2023-02-03T13:36:53.929Z,0.70
2023-02-03T13:39:41.222Z,0.60
2023-02-03T13:42:26.328Z,1.08
2023-02-03T13:45:33.133Z,0.73
2023-02-03T13:48:22.067Z,0.63
2023-02-03T13:51:07.584Z,0.60
2023-02-03T13:53:40.216Z,0.70
2023-02-03T13:56:23.410Z,0.65
2023-02-03T13:59:13.777Z,0.60
2023-02-03T14:01:43.207Z,0.63
2023-02-03T14:04:25.830Z,2.20
2023-02-03T14:06:53.105Z,1.10
2023-02-03T14:09:27.321Z,0.88
2023-02-03T14:12:20.856Z,0.85
2023-02-03T14:14:51.129Z,0.75
2023-02-03T14:17:42.597Z,0.88
2023-02-03T14:20:28.019Z,0.80
2023-02-03T14:23:07.644Z,0.70
2023-02-03T14:25:49.199Z,0.75
2023-02-03T14:28:39.590Z,0.50
2023-02-03T14:31:16.100Z,0.68
2023-02-03T14:33:48.806Z,0.63
2023-02-03T14:36:28.495Z,0.57
2023-02-03T14:39:20.692Z,0.68
2023-02-03T14:42:22.848Z,0.60
2023-02-03T14:45:13.040Z,0.68
2023-02-03T14:48:16.566Z,0.57
2023-02-03T14:51:14.739Z,0.65
2023-02-03T14:53:50.525Z,0.90
2023-02-03T14:57:16.079Z,1.08
2023-02-03T15:00:11.919Z,0.40
2023-02-03T15:03:11.258Z,0.50
2023-02-03T15:06:04.858Z,0.55
2023-02-03T15:08:40.795Z,0.52
2023-02-03T15:11:29.567Z,0.63
2023-02-03T15:14:32.389Z,0.60
2023-02-03T15:17:12.958Z,0.73
2023-02-03T15:19:43.284Z,0.40
2023-02-03T15:22:30.754Z,0.40
2023-02-03T15:25:04.502Z,0.40
2023-02-03T15:27:33.692Z,0.40
2023-02-03T15:30:33.254Z,0.60
2023-02-03T15:33:21.450Z,0.60
2023-02-03T15:36:12.527Z,0.60
2023-02-03T15:38:50.382Z,0.52
2023-02-03T15:41:26.155Z,0.60
2023-02-03T15:44:18.307Z,0.80
2023-02-03T15:46:59.848Z,0.70
2023-02-03T15:49:40.281Z,1.90
2023-02-03T15:52:26.387Z,0.60
2023-02-03T15:55:34.937Z,0.90
2023-02-03T15:58:03.903Z,0.80
2023-02-03T16:00:40.461Z,0.80
2023-02-03T16:03:43.007Z,1.02
2023-02-03T16:06:40.488Z,0.75
2023-02-03T16:09:41.930Z,0.73
2023-02-03T16:12:29.547Z,0.63
2023-02-03T16:14:59.802Z,0.60
2023-02-03T16:17:36.824Z,0.77
2023-02-03T16:20:15.213Z,0.70
2023-02-03T16:23:22.146Z,0.70
2023-02-03T16:26:26.263Z,1.40
2023-02-03T16:29:28.221Z,1.05
2023-02-03T16:32:14.872Z,0.68
2023-02-03T16:35:02.363Z,1.10
2023-02-03T16:37:55.089Z,1.10
2023-02-03T16:40:42.392Z,1.67
2023-02-03T16:43:33.956Z,0.98
2023-02-03T16:46:21.052Z,0.90
2023-02-03T16:49:06.972Z,1.15
2023-02-03T16:51:41.040Z,1.40
2023-02-03T16:54:15.223Z,1.30
2023-02-03T16:56:42.562Z,1.17
2023-02-03T16:59:10.862Z,0.90
2023-02-03T17:01:38.363Z,0.70
2023-02-03T17:04:06.015Z,0.90
2023-02-03T17:06:34.673Z,1.50
2023-02-03T17:09:02.066Z,0.90
2023-02-03T17:11:29.536Z,1.30
2023-02-03T17:13:57.585Z,1.30
2023-02-03T17:16:28.524Z,4.72
2023-02-03T17:18:56.306Z,1.80
2023-02-03T17:21:28.776Z,1.50
2023-02-03T17:23:59.145Z,1.40
2023-02-03T17:26:26.523Z,1.98
2023-02-03T17:28:54.088Z,1.42
2023-02-03T17:31:21.567Z,1.60
2023-02-03T17:33:52.944Z,1.25
2023-02-03T17:36:22.085Z,0.88
2023-02-03T17:55:28.172Z,1.13
2023-02-03T17:57:56.041Z,0.85
2023-02-03T18:00:23.515Z,1.30
2023-02-03T18:02:52.609Z,0.82
2023-02-03T18:05:20.369Z,1.60
2023-02-03T18:10:16.231Z,0.70
2023-02-03T18:12:43.475Z,0.90
2023-02-03T18:15:10.882Z,1.10
2023-02-03T18:17:38.563Z,0.90
2023-02-03T18:20:06.729Z,0.80
2023-02-03T18:22:34.675Z,3.17
2023-02-03T18:25:02.151Z,1.10
2023-02-03T18:27:32.754Z,0.90
2023-02-03T18:30:01.231Z,0.70
2023-02-03T18:32:28.938Z,0.90
2023-02-03T18:34:56.698Z,1.15
2023-02-03T18:37:24.883Z,1.00
2023-02-03T18:39:52.569Z,1.00
2023-02-03T18:42:20.679Z,0.90
2023-02-03T18:44:49.189Z,1.10
2023-02-03T18:47:16.883Z,1.00
2023-02-03T18:49:44.940Z,0.98
2023-02-03T18:52:13.083Z,1.23
2023-02-03T18:54:41.308Z,1.02
2023-02-03T18:57:12.986Z,1.00
2023-02-03T18:59:40.672Z,1.05
2023-02-03T19:02:11.344Z,1.23
2023-02-03T19:04:39.013Z,1.05
2023-02-03T19:07:07.038Z,1.00
2023-02-03T19:09:34.642Z,1.00
2023-02-03T19:12:03.356Z,0.93
2023-02-03T19:14:31.152Z,0.85
2023-02-03T19:16:59.736Z,1.00
2023-02-03T19:19:31.902Z,1.00
2023-02-03T19:21:59.888Z,0.95
2023-02-03T19:24:28.131Z,0.98
2023-02-03T19:26:56.349Z,1.38
2023-02-03T19:29:24.419Z,1.80
2023-02-03T19:31:52.511Z,1.50
2023-02-03T19:34:20.617Z,1.40
2023-02-03T19:36:48.576Z,0.98
2023-02-03T19:39:18.968Z,1.30
2023-02-03T19:41:51.201Z,1.05
2023-02-03T19:44:21.918Z,0.90
2023-02-03T19:46:52.972Z,2.10
2023-02-03T19:49:21.214Z,2.30
2023-02-03T19:51:49.024Z,1.35
2023-02-03T19:54:17.430Z,1.30
2023-02-03T19:56:48.429Z,1.42
2023-02-03T19:59:16.834Z,1.63
2023-02-03T20:01:44.810Z,1.17
2023-02-03T20:04:12.666Z,1.30
2023-02-03T20:06:43.328Z,1.40
2023-02-03T20:09:12.246Z,2.15
2023-02-03T20:11:40.012Z,1.30
2023-02-03T20:14:12.362Z,1.55
2023-02-03T20:16:53.475Z,1.00
2023-02-03T20:19:22.211Z,1.10
2023-02-03T20:21:50.232Z,1.10
2023-02-03T20:24:18.407Z,1.55
2023-02-03T20:26:51.220Z,1.42
2023-02-03T20:29:19.266Z,1.20
2023-02-03T20:31:47.185Z,1.50
2023-02-03T20:34:14.831Z,1.55
2023-02-03T20:36:42.387Z,2.50
2023-02-03T20:39:20.516Z,1.65
2023-02-03T20:41:51.933Z,1.35
2023-02-03T20:44:19.677Z,1.30
2023-02-03T20:46:47.749Z,0.90
2023-02-03T20:49:19.501Z,1.10
2023-02-03T20:51:47.910Z,0.80
2023-02-03T20:54:22.621Z,1.08
2023-02-03T20:56:50.689Z,0.80
2023-02-03T20:59:19.999Z,0.65
2023-02-03T21:01:47.667Z,0.70
2023-02-03T21:04:37.538Z,0.60
2023-02-03T21:07:15.176Z,0.60
2023-02-03T21:09:43.715Z,0.65
2023-02-03T21:12:13.849Z,0.70
2023-02-03T21:14:50.550Z,0.63
2023-02-03T21:17:29.248Z,0.52
2023-02-03T21:20:01.900Z,0.52
2023-02-03T21:22:33.308Z,0.68
2023-02-03T21:25:04.854Z,0.57
2023-02-03T21:27:35.909Z,0.50
2023-02-03T21:30:35.544Z,0.70
2023-02-03T21:33:42.909Z,0.50
2023-02-03T21:36:20.905Z,0.60
2023-02-03T21:38:59.913Z,0.77
2023-02-03T21:41:34.971Z,0.85
2023-02-03T21:44:33.067Z,1.50
2023-02-03T21:47:06.700Z,1.40
2023-02-03T21:49:37.431Z,0.80
2023-02-03T21:52:12.465Z,0.90
2023-02-03T21:54:45.932Z,0.88
2023-02-03T21:57:19.427Z,0.93
2023-02-03T22:00:39.898Z,0.95
2023-02-03T22:03:10.508Z,1.20
2023-02-03T22:05:38.664Z,1.42
2023-02-03T22:08:22.840Z,1.40
2023-02-03T22:10:54.085Z,1.50
2023-02-03T22:13:25.669Z,1.85
2023-02-03T22:16:02.790Z,1.70
2023-02-03T22:18:31.655Z,1.65
2023-02-03T22:21:00.335Z,2.00
2023-02-03T22:23:28.664Z,2.28
2023-02-03T22:25:57.272Z,2.15
2023-02-03T22:28:26.725Z,2.03
2023-02-03T22:30:55.488Z,1.90
2023-02-03T22:33:24.043Z,2.25
2023-02-03T22:35:52.667Z,2.30
2023-02-03T22:38:24.330Z,2.35
2023-02-03T22:40:56.088Z,2.63
2023-02-03T22:43:25.467Z,2.97
2023-02-03T22:45:54.696Z,2.85
2023-02-03T22:48:31.151Z,2.70
2023-02-03T22:51:10.221Z,4.90
2023-02-03T22:53:47.567Z,3.17
2023-02-03T22:56:19.264Z,2.42
2023-02-03T22:58:48.169Z,2.92
2023-02-03T23:01:17.211Z,3.05
2023-02-03T23:03:46.224Z,3.92
2023-02-03T23:06:14.520Z,3.53
2023-02-03T23:08:47.701Z,3.55
2023-02-03T23:11:19.473Z,3.47
2023-02-03T23:13:48.891Z,3.38
2023-02-03T23:16:19.028Z,3.28
2023-02-03T23:18:47.898Z,3.25
2023-02-03T23:21:16.207Z,3.10
2023-02-03T23:23:47.812Z,3.35
2023-02-03T23:26:16.836Z,3.00
2023-02-03T23:28:45.713Z,2.95
2023-02-03T23:31:15.715Z,3.38
2023-02-03T23:34:06.576Z,2.70
2023-02-03T23:36:37.888Z,2.60
2023-02-03T23:39:11.023Z,2.75
2023-02-03T23:41:38.985Z,2.88
2023-02-03T23:44:07.286Z,3.03
2023-02-03T23:46:35.624Z,2.65
2023-02-03T23:49:03.785Z,2.78
2023-02-03T23:51:31.627Z,2.75
2023-02-03T23:53:59.256Z,3.15
2023-02-03T23:56:28.171Z,2.80
2023-02-03T23:58:56.713Z,3.08
